sensor_id;sensor_type;location;lat;lon;timestamp;pressure;altitude;pressure_sealevel;temperature;humidity
78144;BME280;67394;52.522;13.622;2023-05-07T00:02:21;101611.31;;;7.89;91.52
78144;BME280;67394;52.522;13.622;2023-05-07T00:04:48;101618.00;;;7.85;91.88
78144;BME280;67394;52.522;13.622;2023-05-07T00:07:15;101615.47;;;7.85;91.61
78144;BME280;67394;52.522;13.622;2023-05-07T00:09:42;101618.00;;;7.85;92.20
78144;BME280;67394;52.522;13.622;2023-05-07T00:12:10;101617.13;;;7.83;92.74
78144;BME280;67394;52.522;13.622;2023-05-07T00:14:39;101621.59;;;7.92;91.68
78144;BME280;67394;52.522;13.622;2023-05-07T00:17:06;101612.09;;;7.86;92.46
78144;BME280;67394;52.522;13.622;2023-05-07T00:19:33;101606.91;;;7.83;92.04
78144;BME280;67394;52.522;13.622;2023-05-07T00:22:00;101616.84;;;7.74;91.92
78144;BME280;67394;52.522;13.622;2023-05-07T00:24:26;101610.13;;;7.76;92.32
78144;BME280;67394;52.522;13.622;2023-05-07T00:26:53;101606.75;;;7.77;91.89
78144;BME280;67394;52.522;13.622;2023-05-07T00:29:19;101611.84;;;7.77;91.70
78144;BME280;67394;52.522;13.622;2023-05-07T00:31:46;101619.41;;;7.72;91.97
78144;BME280;67394;52.522;13.622;2023-05-07T00:34:12;101613.50;;;7.75;91.83
78144;BME280;67394;52.522;13.622;2023-05-07T00:36:39;101609.38;;;7.80;92.17
78144;BME280;67394;52.522;13.622;2023-05-07T00:39:06;101610.13;;;7.76;91.88
78144;BME280;67394;52.522;13.622;2023-05-07T00:41:32;101610.06;;;7.75;92.31
78144;BME280;67394;52.522;13.622;2023-05-07T00:43:59;101608.38;;;7.75;92.44
78144;BME280;67394;52.522;13.622;2023-05-07T00:46:26;101613.72;;;7.84;91.56
78144;BME280;67394;52.522;13.622;2023-05-07T00:48:53;101608.47;;;7.78;92.31
78144;BME280;67394;52.522;13.622;2023-05-07T00:51:20;101612.66;;;7.76;92.03
78144;BME280;67394;52.522;13.622;2023-05-07T00:53:48;101607.53;;;7.75;92.49
78144;BME280;67394;52.522;13.622;2023-05-07T00:56:15;101605.16;;;7.81;92.20
78144;BME280;67394;52.522;13.622;2023-05-07T00:58:42;101606.78;;;7.79;92.19
78144;BME280;67394;52.522;13.622;2023-05-07T01:01:09;101612.63;;;7.75;91.90
78144;BME280;67394;52.522;13.622;2023-05-07T01:03:36;101614.53;;;7.82;91.95
78144;BME280;67394;52.522;13.622;2023-05-07T01:06:04;101604.16;;;7.76;91.73
78144;BME280;67394;52.522;13.622;2023-05-07T01:08:32;101604.25;;;7.79;91.99
78144;BME280;67394;52.522;13.622;2023-05-07T01:10:59;101605.88;;;7.77;92.27
78144;BME280;67394;52.522;13.622;2023-05-07T01:13:26;101612.66;;;7.76;91.57
78144;BME280;67394;52.522;13.622;2023-05-07T01:15:55;101620.41;;;7.79;91.66
78144;BME280;67394;52.522;13.622;2023-05-07T01:18:22;101616.03;;;7.75;91.54
78144;BME280;67394;52.522;13.622;2023-05-07T01:20:49;101615.25;;;7.78;91.88
78144;BME280;67394;52.522;13.622;2023-05-07T01:23:16;101606.69;;;7.76;91.80
78144;BME280;67394;52.522;13.622;2023-05-07T01:25:43;101614.34;;;7.76;91.37
78144;BME280;67394;52.522;13.622;2023-05-07T01:28:09;101606.69;;;7.76;91.08
78144;BME280;67394;52.522;13.622;2023-05-07T01:30:37;101609.19;;;7.72;91.30
78144;BME280;67394;52.522;13.622;2023-05-07T01:33:09;101616.13;;;7.78;91.54
78144;BME280;67394;52.522;13.622;2023-05-07T01:35:43;101617.78;;;7.76;91.51
78144;BME280;67394;52.522;13.622;2023-05-07T01:38:11;101610.97;;;7.77;91.22
78144;BME280;67394;52.522;13.622;2023-05-07T01:40:39;101621.19;;;7.77;91.23
78144;BME280;67394;52.522;13.622;2023-05-07T01:43:06;101622.16;;;7.80;90.78
78144;BME280;67394;52.522;13.622;2023-05-07T01:45:33;101624.75;;;7.82;90.59
78144;BME280;67394;52.522;13.622;2023-05-07T01:48:02;101627.19;;;7.79;91.28
78144;BME280;67394;52.522;13.622;2023-05-07T01:50:30;101617.03;;;7.80;90.90
78144;BME280;67394;52.522;13.622;2023-05-07T01:52:58;101624.50;;;7.74;90.60
78144;BME280;67394;52.522;13.622;2023-05-07T01:55:25;101628.03;;;7.78;91.48
78144;BME280;67394;52.522;13.622;2023-05-07T01:57:52;101627.94;;;7.75;91.53
78144;BME280;67394;52.522;13.622;2023-05-07T02:00:19;101626.38;;;7.80;91.09
78144;BME280;67394;52.522;13.622;2023-05-07T02:02:46;101634.00;;;7.78;91.32
78144;BME280;67394;52.522;13.622;2023-05-07T02:05:13;101625.53;;;7.79;91.48
78144;BME280;67394;52.522;13.622;2023-05-07T02:07:39;101628.97;;;7.81;90.71
78144;BME280;67394;52.522;13.622;2023-05-07T02:10:06;101639.19;;;7.81;90.83
78144;BME280;67394;52.522;13.622;2023-05-07T02:12:35;101630.53;;;7.76;91.18
78144;BME280;67394;52.522;13.622;2023-05-07T02:15:02;101631.47;;;7.80;90.56
78144;BME280;67394;52.522;13.622;2023-05-07T02:17:29;101629.75;;;7.79;90.53
78144;BME280;67394;52.522;13.622;2023-05-07T02:19:55;101630.53;;;7.76;90.47
78144;BME280;67394;52.522;13.622;2023-05-07T02:22:22;101634.75;;;7.76;90.50
78144;BME280;67394;52.522;13.622;2023-05-07T02:24:49;101638.13;;;7.75;90.65
78144;BME280;67394;52.522;13.622;2023-05-07T02:27:15;101646.56;;;7.70;90.86
78144;BME280;67394;52.522;13.622;2023-05-07T02:29:42;101644.16;;;7.77;90.45
78144;BME280;67394;52.522;13.622;2023-05-07T02:32:09;101648.34;;;7.73;90.65
78144;BME280;67394;52.522;13.622;2023-05-07T02:34:35;101641.41;;;7.69;90.95
78144;BME280;67394;52.522;13.622;2023-05-07T02:37:02;101640.69;;;7.73;91.12
78144;BME280;67394;52.522;13.622;2023-05-07T02:39:29;101643.09;;;7.68;91.12
78144;BME280;67394;52.522;13.622;2023-05-07T02:41:55;101643.00;;;7.65;91.38
78144;BME280;67394;52.522;13.622;2023-05-07T02:44:22;101649.88;;;7.68;90.89
78144;BME280;67394;52.522;13.622;2023-05-07T02:46:48;101650.69;;;7.67;91.34
78144;BME280;67394;52.522;13.622;2023-05-07T02:49:15;101648.34;;;7.73;90.94
78144;BME280;67394;52.522;13.622;2023-05-07T02:51:42;101651.84;;;7.78;90.67
78144;BME280;67394;52.522;13.622;2023-05-07T02:54:09;101646.63;;;7.73;90.88
78144;BME280;67394;52.522;13.622;2023-05-07T02:56:35;101650.78;;;7.70;91.12
78144;BME280;67394;52.522;13.622;2023-05-07T02:59:02;101655.06;;;7.71;91.11
78144;BME280;67394;52.522;13.622;2023-05-07T03:01:28;101658.50;;;7.71;91.24
78144;BME280;67394;52.522;13.622;2023-05-07T03:03:57;101665.25;;;7.69;90.85
78144;BME280;67394;52.522;13.622;2023-05-07T03:06:23;101659.38;;;7.72;90.68
78144;BME280;67394;52.522;13.622;2023-05-07T03:08:50;101666.09;;;7.70;90.92
78144;BME280;67394;52.522;13.622;2023-05-07T03:11:17;101662.03;;;7.77;91.09
78144;BME280;67394;52.522;13.622;2023-05-07T03:13:45;101673.66;;;7.67;91.25
78144;BME280;67394;52.522;13.622;2023-05-07T03:16:12;101670.16;;;7.63;90.85
78144;BME280;67394;52.522;13.622;2023-05-07T03:18:38;101672.59;;;7.59;91.03
78144;BME280;67394;52.522;13.622;2023-05-07T03:21:05;101677.75;;;7.60;91.18
78144;BME280;67394;52.522;13.622;2023-05-07T03:23:32;101672.69;;;7.62;91.10
78144;BME280;67394;52.522;13.622;2023-05-07T03:25:59;101674.47;;;7.66;91.42
78144;BME280;67394;52.522;13.622;2023-05-07T03:28:25;101664.28;;;7.66;90.61
78144;BME280;67394;52.522;13.622;2023-05-07T03:30:52;101667.66;;;7.65;90.83
78144;BME280;67394;52.522;13.622;2023-05-07T03:33:18;101683.81;;;7.65;91.05
78144;BME280;67394;52.522;13.622;2023-05-07T03:35:45;101680.28;;;7.60;91.14
78144;BME280;67394;52.522;13.622;2023-05-07T03:38:14;101683.66;;;7.59;90.89
78144;BME280;67394;52.522;13.622;2023-05-07T03:40:41;101679.25;;;7.54;90.64
78144;BME280;67394;52.522;13.622;2023-05-07T03:43:08;101686.06;;;7.55;90.50
78144;BME280;67394;52.522;13.622;2023-05-07T03:45:35;101682.59;;;7.51;90.43
78144;BME280;67394;52.522;13.622;2023-05-07T03:48:02;101690.34;;;7.56;90.17
78144;BME280;67394;52.522;13.622;2023-05-07T03:50:29;101687.69;;;7.51;90.44
78144;BME280;67394;52.522;13.622;2023-05-07T03:52:56;101690.31;;;7.54;90.75
78144;BME280;67394;52.522;13.622;2023-05-07T03:55:22;101690.09;;;7.47;90.82
78144;BME280;67394;52.522;13.622;2023-05-07T03:57:49;101690.25;;;7.53;90.73
78144;BME280;67394;52.522;13.622;2023-05-07T04:00:15;101691.13;;;7.52;90.37
78144;BME280;67394;52.522;13.622;2023-05-07T04:02:42;101691.22;;;7.56;90.43
78144;BME280;67394;52.522;13.622;2023-05-07T04:05:09;101693.09;;;7.62;89.96
78144;BME280;67394;52.522;13.622;2023-05-07T04:07:36;101689.53;;;7.57;89.94
78144;BME280;67394;52.522;13.622;2023-05-07T04:10:05;101693.00;;;7.59;89.93
78144;BME280;67394;52.522;13.622;2023-05-07T04:12:32;101691.19;;;7.55;89.87
78144;BME280;67394;52.522;13.622;2023-05-07T04:14:59;101693.81;;;7.58;89.80
78144;BME280;67394;52.522;13.622;2023-05-07T04:17:25;101693.81;;;7.58;89.53
78144;BME280;67394;52.522;13.622;2023-05-07T04:19:52;101689.53;;;7.57;89.79
78144;BME280;67394;52.522;13.622;2023-05-07T04:22:18;101702.34;;;7.58;89.16
78144;BME280;67394;52.522;13.622;2023-05-07T04:24:45;101702.47;;;7.63;88.92
78144;BME280;67394;52.522;13.622;2023-05-07T04:27:11;101707.53;;;7.61;89.36
78144;BME280;67394;52.522;13.622;2023-05-07T04:29:38;101705.97;;;7.66;89.04
78144;BME280;67394;52.522;13.622;2023-05-07T04:32:04;101703.47;;;7.68;88.61
78144;BME280;67394;52.522;13.622;2023-05-07T04:34:32;101703.47;;;7.68;88.27
78144;BME280;67394;52.522;13.622;2023-05-07T04:36:59;101714.63;;;7.71;87.98
78144;BME280;67394;52.522;13.622;2023-05-07T04:39:26;101711.25;;;7.72;87.54
78144;BME280;67394;52.522;13.622;2023-05-07T04:41:52;101718.88;;;7.71;87.53
78144;BME280;67394;52.522;13.622;2023-05-07T04:44:19;101713.81;;;7.72;87.88
78144;BME280;67394;52.522;13.622;2023-05-07T04:46:46;101718.13;;;7.75;87.53
78144;BME280;67394;52.522;13.622;2023-05-07T04:49:12;101723.38;;;7.80;87.36
78144;BME280;67394;52.522;13.622;2023-05-07T04:51:39;101721.78;;;7.85;87.07
78144;BME280;67394;52.522;13.622;2023-05-07T04:54:06;101722.09;;;7.95;86.17
78144;BME280;67394;52.522;13.622;2023-05-07T04:56:33;101724.00;;;8.02;86.93
78144;BME280;67394;52.522;13.622;2023-05-07T04:58:59;101724.97;;;8.07;85.99
78144;BME280;67394;52.522;13.622;2023-05-07T05:01:26;101720.63;;;8.03;86.38
78144;BME280;67394;52.522;13.622;2023-05-07T05:03:53;101731.66;;;8.02;86.02
78144;BME280;67394;52.522;13.622;2023-05-07T05:06:19;101728.28;;;8.03;86.81
78144;BME280;67394;52.522;13.622;2023-05-07T05:08:46;101729.00;;;7.99;86.39
78144;BME280;67394;52.522;13.622;2023-05-07T05:11:13;101735.03;;;8.01;85.93
78144;BME280;67394;52.522;13.622;2023-05-07T05:13:39;101728.97;;;7.98;85.70
78144;BME280;67394;52.522;13.622;2023-05-07T05:16:06;101733.50;;;8.08;86.39
78144;BME280;67394;52.522;13.622;2023-05-07T05:18:33;101736.81;;;8.05;85.74
78144;BME280;67394;52.522;13.622;2023-05-07T05:20:59;101737.69;;;8.06;85.84
78144;BME280;67394;52.522;13.622;2023-05-07T05:23:26;101739.53;;;8.10;85.35
78144;BME280;67394;52.522;13.622;2023-05-07T05:25:57;101734.66;;;8.19;84.88
78144;BME280;67394;52.522;13.622;2023-05-07T05:28:23;101744.09;;;8.22;85.07
78144;BME280;67394;52.522;13.622;2023-05-07T05:30:50;101745.97;;;8.29;84.03
78144;BME280;67394;52.522;13.622;2023-05-07T05:33:17;101747.06;;;8.37;83.92
78144;BME280;67394;52.522;13.622;2023-05-07T05:35:43;101748.53;;;8.29;84.10
78144;BME280;67394;52.522;13.622;2023-05-07T05:38:10;101739.53;;;8.41;84.52
78144;BME280;67394;52.522;13.622;2023-05-07T05:40:37;101738.81;;;8.46;84.08
78144;BME280;67394;52.522;13.622;2023-05-07T05:43:03;101744.78;;;8.46;84.16
78144;BME280;67394;52.522;13.622;2023-05-07T05:45:30;101745.78;;;8.53;84.50
78144;BME280;67394;52.522;13.622;2023-05-07T05:47:57;101742.50;;;8.57;83.30
78144;BME280;67394;52.522;13.622;2023-05-07T05:50:25;101742.38;;;8.52;84.11
78144;BME280;67394;52.522;13.622;2023-05-07T05:52:52;101738.47;;;8.66;83.87
78144;BME280;67394;52.522;13.622;2023-05-07T05:55:19;101742.84;;;8.72;83.95
78144;BME280;67394;52.522;13.622;2023-05-07T05:57:45;101740.22;;;8.67;83.43
78144;BME280;67394;52.522;13.622;2023-05-07T06:00:12;101749.34;;;8.59;82.77
78144;BME280;67394;52.522;13.622;2023-05-07T06:02:40;101746.88;;;8.62;83.40
78144;BME280;67394;52.522;13.622;2023-05-07T06:05:07;101754.63;;;8.65;83.30
78144;BME280;67394;52.522;13.622;2023-05-07T06:07:34;101751.31;;;8.69;82.94
78144;BME280;67394;52.522;13.622;2023-05-07T06:10:01;101758.28;;;8.75;82.83
78144;BME280;67394;52.522;13.622;2023-05-07T06:12:28;101756.91;;;8.88;82.75
78144;BME280;67394;52.522;13.622;2023-05-07T06:14:55;101768.88;;;8.90;81.90
78144;BME280;67394;52.522;13.622;2023-05-07T06:17:22;101773.28;;;8.96;81.33
78144;BME280;67394;52.522;13.622;2023-05-07T06:19:52;101776.84;;;9.02;82.88
78144;BME280;67394;52.522;13.622;2023-05-07T06:22:21;101775.34;;;9.12;81.73
78144;BME280;67394;52.522;13.622;2023-05-07T06:24:48;101766.03;;;9.14;81.71
78144;BME280;67394;52.522;13.622;2023-05-07T06:27:15;101773.72;;;9.14;80.90
78144;BME280;67394;52.522;13.622;2023-05-07T06:29:41;101764.38;;;9.16;80.30
78144;BME280;67394;52.522;13.622;2023-05-07T06:32:12;101782.41;;;9.21;79.61
78144;BME280;67394;52.522;13.622;2023-05-07T06:34:40;101780.72;;;9.21;79.67
78144;BME280;67394;52.522;13.622;2023-05-07T06:37:07;101770.94;;;9.41;79.24
78144;BME280;67394;52.522;13.622;2023-05-07T06:39:33;101777.78;;;9.43;79.68
78144;BME280;67394;52.522;13.622;2023-05-07T06:42:01;101777.03;;;9.47;79.24
78144;BME280;67394;52.522;13.622;2023-05-07T06:44:27;101773.72;;;9.51;78.76
78144;BME280;67394;52.522;13.622;2023-05-07T06:46:54;101771.28;;;9.58;78.04
78144;BME280;67394;52.522;13.622;2023-05-07T06:49:21;101784.25;;;9.65;77.85
78144;BME280;67394;52.522;13.622;2023-05-07T06:51:48;101778.66;;;9.83;77.80
78144;BME280;67394;52.522;13.622;2023-05-07T06:54:15;101785.63;;;9.90;77.95
78144;BME280;67394;52.522;13.622;2023-05-07T06:56:41;101789.09;;;9.92;76.29
78144;BME280;67394;52.522;13.622;2023-05-07T06:59:08;101796.00;;;9.96;76.78
78144;BME280;67394;52.522;13.622;2023-05-07T07:01:34;101790.75;;;9.90;76.42
78144;BME280;67394;52.522;13.622;2023-05-07T07:04:01;101803.38;;;9.81;76.28
78144;BME280;67394;52.522;13.622;2023-05-07T07:06:27;101806.69;;;9.77;77.24
78144;BME280;67394;52.522;13.622;2023-05-07T07:08:54;101802.50;;;9.80;76.67
78144;BME280;67394;52.522;13.622;2023-05-07T07:11:21;101806.03;;;9.87;76.49
78144;BME280;67394;52.522;13.622;2023-05-07T07:13:48;101801.00;;;9.90;77.42
78144;BME280;67394;52.522;13.622;2023-05-07T07:16:17;101804.84;;;10.12;77.49
78144;BME280;67394;52.522;13.622;2023-05-07T07:18:43;101803.69;;;10.37;76.40
78144;BME280;67394;52.522;13.622;2023-05-07T07:21:10;101797.13;;;10.52;75.76
78144;BME280;67394;52.522;13.622;2023-05-07T07:23:37;101790.44;;;10.59;73.57
78144;BME280;67394;52.522;13.622;2023-05-07T07:26:04;101801.56;;;10.62;74.90
78144;BME280;67394;52.522;13.622;2023-05-07T07:28:32;101807.84;;;10.78;74.24
78144;BME280;67394;52.522;13.622;2023-05-07T07:30:58;101803.63;;;10.80;73.85
78144;BME280;67394;52.522;13.622;2023-05-07T07:33:25;101804.47;;;10.82;72.69
78144;BME280;67394;52.522;13.622;2023-05-07T07:35:52;101792.31;;;10.71;73.60
78144;BME280;67394;52.522;13.622;2023-05-07T07:38:19;101802.06;;;10.91;73.78
78144;BME280;67394;52.522;13.622;2023-05-07T07:40:47;101805.63;;;10.98;73.02
78144;BME280;67394;52.522;13.622;2023-05-07T07:43:13;101802.56;;;11.20;73.06
78144;BME280;67394;52.522;13.622;2023-05-07T07:45:40;101796.81;;;11.36;72.52
78144;BME280;67394;52.522;13.622;2023-05-07T07:48:07;101795.38;;;11.54;72.37
78144;BME280;67394;52.522;13.622;2023-05-07T07:50:34;101792.63;;;11.42;69.99
78144;BME280;67394;52.522;13.622;2023-05-07T07:53:12;101797.00;;;11.50;69.69
78144;BME280;67394;52.522;13.622;2023-05-07T07:55:39;101796.84;;;11.40;70.45
78144;BME280;67394;52.522;13.622;2023-05-07T07:58:06;101790.84;;;11.37;70.71
78144;BME280;67394;52.522;13.622;2023-05-07T08:00:33;101796.19;;;11.53;71.61
78144;BME280;67394;52.522;13.622;2023-05-07T08:02:59;101799.94;;;11.74;70.42
78144;BME280;67394;52.522;13.622;2023-05-07T08:05:26;101789.78;;;11.84;69.25
78144;BME280;67394;52.522;13.622;2023-05-07T08:07:53;101792.69;;;12.11;69.80
78144;BME280;67394;52.522;13.622;2023-05-07T08:10:21;101798.91;;;12.28;68.85
78144;BME280;67394;52.522;13.622;2023-05-07T08:12:51;101796.06;;;12.08;67.55
78144;BME280;67394;52.522;13.622;2023-05-07T08:15:18;101791.59;;;11.91;68.22
78144;BME280;67394;52.522;13.622;2023-05-07T08:17:44;101800.13;;;11.90;68.07
78144;BME280;67394;52.522;13.622;2023-05-07T08:20:11;101795.31;;;12.14;67.35
78144;BME280;67394;52.522;13.622;2023-05-07T08:22:38;101795.66;;;12.46;67.55
78144;BME280;67394;52.522;13.622;2023-05-07T08:25:05;101794.16;;;12.68;66.92
78144;BME280;67394;52.522;13.622;2023-05-07T08:27:31;101785.78;;;12.90;67.33
78144;BME280;67394;52.522;13.622;2023-05-07T08:29:58;101800.31;;;12.85;65.53
78144;BME280;67394;52.522;13.622;2023-05-07T08:32:26;101799.25;;;12.60;66.30
78144;BME280;67394;52.522;13.622;2023-05-07T08:34:53;101792.44;;;12.71;65.40
78144;BME280;67394;52.522;13.622;2023-05-07T08:37:20;101798.50;;;12.75;63.20
78144;BME280;67394;52.522;13.622;2023-05-07T08:39:47;101803.94;;;13.08;66.12
78144;BME280;67394;52.522;13.622;2023-05-07T08:42:15;101798.97;;;13.30;63.18
78144;BME280;67394;52.522;13.622;2023-05-07T08:44:45;101814.19;;;13.02;63.92
78144;BME280;67394;52.522;13.622;2023-05-07T08:47:12;101819.53;;;13.22;64.12
78144;BME280;67394;52.522;13.622;2023-05-07T08:49:39;101804.22;;;13.42;62.08
78144;BME280;67394;52.522;13.622;2023-05-07T08:52:06;101814.44;;;13.31;63.61
78144;BME280;67394;52.522;13.622;2023-05-07T08:54:37;101813.47;;;13.17;63.24
78144;BME280;67394;52.522;13.622;2023-05-07T08:57:04;101810.25;;;13.48;64.00
78144;BME280;67394;52.522;13.622;2023-05-07T08:59:31;101803.50;;;13.64;63.26
78144;BME280;67394;52.522;13.622;2023-05-07T09:01:57;101809.56;;;13.75;63.33
78144;BME280;67394;52.522;13.622;2023-05-07T09:04:24;101819.06;;;13.87;60.82
78144;BME280;67394;52.522;13.622;2023-05-07T09:06:51;101806.19;;;13.90;61.35
78144;BME280;67394;52.522;13.622;2023-05-07T09:09:17;101828.50;;;13.85;61.18
78144;BME280;67394;52.522;13.622;2023-05-07T09:11:44;101825.97;;;13.96;61.23
78144;BME280;67394;52.522;13.622;2023-05-07T09:14:10;101813.06;;;13.89;59.70
78144;BME280;67394;52.522;13.622;2023-05-07T09:16:37;101822.53;;;13.92;61.08
78144;BME280;67394;52.522;13.622;2023-05-07T09:19:04;101825.09;;;13.86;59.33
78144;BME280;67394;52.522;13.622;2023-05-07T09:21:31;101825.94;;;13.85;59.94
78144;BME280;67394;52.522;13.622;2023-05-07T09:23:58;101825.94;;;13.88;59.15
78144;BME280;67394;52.522;13.622;2023-05-07T09:26:25;101826.09;;;14.30;58.52
78144;BME280;67394;52.522;13.622;2023-05-07T09:28:51;101819.34;;;14.60;59.31
78144;BME280;67394;52.522;13.622;2023-05-07T09:31:19;101823.59;;;14.43;58.87
78144;BME280;67394;52.522;13.622;2023-05-07T09:33:47;101825.31;;;14.39;59.54
78144;BME280;67394;52.522;13.622;2023-05-07T09:36:14;101823.59;;;14.41;59.30
78144;BME280;67394;52.522;13.622;2023-05-07T09:38:42;101829.63;;;14.43;60.45
78144;BME280;67394;52.522;13.622;2023-05-07T09:41:10;101818.44;;;14.44;58.27
78144;BME280;67394;52.522;13.622;2023-05-07T09:43:38;101814.97;;;14.38;59.34
78144;BME280;67394;52.522;13.622;2023-05-07T09:46:13;101816.56;;;14.10;59.03
78144;BME280;67394;52.522;13.622;2023-05-07T09:48:43;101825.03;;;13.78;60.50
78144;BME280;67394;52.522;13.622;2023-05-07T09:51:24;101818.19;;;13.89;59.56
78144;BME280;67394;52.522;13.622;2023-05-07T09:53:52;101822.47;;;13.83;60.26
78144;BME280;67394;52.522;13.622;2023-05-07T09:56:19;101823.38;;;13.92;60.40
78144;BME280;67394;52.522;13.622;2023-05-07T09:58:46;101829.38;;;13.88;59.34
78144;BME280;67394;52.522;13.622;2023-05-07T10:01:13;101826.75;;;13.75;60.34
78144;BME280;67394;52.522;13.622;2023-05-07T10:03:41;101833.69;;;13.86;59.51
78144;BME280;67394;52.522;13.622;2023-05-07T10:06:09;101820.00;;;13.98;58.92
78144;BME280;67394;52.522;13.622;2023-05-07T10:08:36;101820.88;;;14.11;59.43
78144;BME280;67394;52.522;13.622;2023-05-07T10:11:04;101827.06;;;14.55;58.21
78144;BME280;67394;52.522;13.622;2023-05-07T10:13:34;101830.47;;;14.39;57.10
78144;BME280;67394;52.522;13.622;2023-05-07T10:16:03;101828.81;;;14.64;56.89
78144;BME280;67394;52.522;13.622;2023-05-07T10:18:31;101825.38;;;14.73;56.14
78144;BME280;67394;52.522;13.622;2023-05-07T10:21:07;101830.59;;;15.03;58.56
78144;BME280;67394;52.522;13.622;2023-05-07T10:23:35;101837.47;;;15.04;56.77
78144;BME280;67394;52.522;13.622;2023-05-07T10:26:03;101824.53;;;14.89;56.60
78144;BME280;67394;52.522;13.622;2023-05-07T10:28:35;101826.22;;;14.75;56.19
78144;BME280;67394;52.522;13.622;2023-05-07T10:33:43;101837.44;;;15.41;58.63
78144;BME280;67394;52.522;13.622;2023-05-07T10:36:11;101826.22;;;15.61;55.07
78144;BME280;67394;52.522;13.622;2023-05-07T10:38:38;101830.47;;;15.85;53.73
78144;BME280;67394;52.522;13.622;2023-05-07T10:41:05;101833.13;;;15.30;53.54
78144;BME280;67394;52.522;13.622;2023-05-07T10:43:42;101825.38;;;15.27;53.12
78144;BME280;67394;52.522;13.622;2023-05-07T10:46:29;101827.97;;;15.29;53.54
78144;BME280;67394;52.522;13.622;2023-05-07T10:51:30;101815.78;;;15.90;53.53
78144;BME280;67394;52.522;13.622;2023-05-07T10:56:42;101825.19;;;16.14;53.26
78144;BME280;67394;52.522;13.622;2023-05-07T11:01:53;101820.72;;;16.48;52.88
78144;BME280;67394;52.522;13.622;2023-05-07T11:04:21;101818.88;;;16.71;53.29
78144;BME280;67394;52.522;13.622;2023-05-07T11:15:07;101826.34;;;17.08;49.27
78144;BME280;67394;52.522;13.622;2023-05-07T11:17:52;101820.84;;;17.41;52.14
78144;BME280;67394;52.522;13.622;2023-05-07T11:20:19;101819.03;;;17.49;50.90
78144;BME280;67394;52.522;13.622;2023-05-07T11:22:47;101820.72;;;17.56;48.44
78144;BME280;67394;52.522;13.622;2023-05-07T11:25:18;101819.25;;;17.28;47.29
78144;BME280;67394;52.522;13.622;2023-05-07T11:27:45;101820.38;;;16.95;49.27
78144;BME280;67394;52.522;13.622;2023-05-07T11:30:17;101813.28;;;17.20;50.50
78144;BME280;67394;52.522;13.622;2023-05-07T11:32:47;101816.22;;;16.76;49.07
78144;BME280;67394;52.522;13.622;2023-05-07T11:35:15;101819.84;;;16.43;50.41
78144;BME280;67394;52.522;13.622;2023-05-07T11:37:42;101809.84;;;17.18;49.75
78144;BME280;67394;52.522;13.622;2023-05-07T11:40:10;101804.06;;;17.79;50.53
78144;BME280;67394;52.522;13.622;2023-05-07T11:42:38;101813.66;;;17.69;47.60
78144;BME280;67394;52.522;13.622;2023-05-07T11:45:06;101808.81;;;17.37;47.41
78144;BME280;67394;52.522;13.622;2023-05-07T11:47:33;101814.94;;;17.27;48.50
78144;BME280;67394;52.522;13.622;2023-05-07T11:50:06;101806.16;;;17.40;48.58
78144;BME280;67394;52.522;13.622;2023-05-07T11:52:34;101816.22;;;16.74;48.19
78144;BME280;67394;52.522;13.622;2023-05-07T11:55:02;101827.38;;;16.89;50.59
78144;BME280;67394;52.522;13.622;2023-05-07T11:57:30;101818.06;;;16.54;48.81
78144;BME280;67394;52.522;13.622;2023-05-07T11:59:58;101818.97;;;16.52;49.64
78144;BME280;67394;52.522;13.622;2023-05-07T12:02:25;101823.66;;;17.18;49.54
78144;BME280;67394;52.522;13.622;2023-05-07T12:04:53;101822.56;;;17.45;48.82
78144;BME280;67394;52.522;13.622;2023-05-07T12:07:20;101812.94;;;17.55;47.16
78144;BME280;67394;52.522;13.622;2023-05-07T12:09:47;101810.91;;;17.84;46.30
78144;BME280;67394;52.522;13.622;2023-05-07T12:12:14;101812.00;;;17.62;47.04
78144;BME280;67394;52.522;13.622;2023-05-07T12:14:41;101801.50;;;17.76;47.23
78144;BME280;67394;52.522;13.622;2023-05-07T12:17:09;101802.91;;;18.01;46.64
78144;BME280;67394;52.522;13.622;2023-05-07T12:19:38;101805.81;;;17.77;44.24
78144;BME280;67394;52.522;13.622;2023-05-07T12:22:07;101800.69;;;17.71;45.07
78144;BME280;67394;52.522;13.622;2023-05-07T12:24:57;101809.22;;;17.82;47.00
78144;BME280;67394;52.522;13.622;2023-05-07T12:27:25;101805.63;;;18.55;46.64
78144;BME280;67394;52.522;13.622;2023-05-07T12:29:52;101812.31;;;18.74;45.41
78144;BME280;67394;52.522;13.622;2023-05-07T12:32:20;101809.13;;;18.54;44.84
78144;BME280;67394;52.522;13.622;2023-05-07T12:34:49;101812.38;;;18.70;44.96
78144;BME280;67394;52.522;13.622;2023-05-07T12:37:17;101806.44;;;18.63;44.93
78144;BME280;67394;52.522;13.622;2023-05-07T12:40:03;101803.34;;;18.93;44.79
78144;BME280;67394;52.522;13.622;2023-05-07T12:42:33;101804.75;;;18.59;45.34
78144;BME280;67394;52.522;13.622;2023-05-07T12:45:08;101806.47;;;18.60;44.41
78144;BME280;67394;52.522;13.622;2023-05-07T12:47:36;101806.19;;;18.78;44.39
78144;BME280;67394;52.522;13.622;2023-05-07T12:50:05;101807.25;;;18.65;44.71
78144;BME280;67394;52.522;13.622;2023-05-07T12:52:33;101803.94;;;18.54;45.38
78144;BME280;67394;52.522;13.622;2023-05-07T12:55:08;101798.13;;;18.35;43.89
78144;BME280;67394;52.522;13.622;2023-05-07T12:57:39;101804.28;;;18.29;44.46
78144;BME280;67394;52.522;13.622;2023-05-07T13:00:06;101808.09;;;18.67;44.12
78144;BME280;67394;52.522;13.622;2023-05-07T13:02:34;101806.91;;;18.26;41.89
78144;BME280;67394;52.522;13.622;2023-05-07T13:05:03;101807.44;;;18.50;41.96
78144;BME280;67394;52.522;13.622;2023-05-07T13:07:30;101797.09;;;18.47;42.64